Time,TemperatureF,DewpointF,PressureIn,WindDirection,WindDirectionDegrees,WindSpeedMPH,WindSpeedGustMPH,Humidity,HourlyPrecipIn,Conditions,Clouds,dailyrainin,SoftwareType,DateUTC
2013-01-15 00:00:00,-1.0,-99.9,-100.00,SSW,205,70.0,-999.0,-999,-99.99,,,-99.99,,2013-01-15 07:00:00,
2013-01-15 00:53:00,-1.0,-99.9,-100.00,SSW,205,70.0,-999.0,-999,-99.99,,,-99.99,,2013-01-15 07:53:00,
2013-01-15 01:00:00,-2.0,-99.9,-100.00,SSW,208,71.0,-999.0,-999,-99.99,,,-99.99,,2013-01-15 08:00:00,
2013-01-15 01:53:00,-2.0,-99.9,-100.00,SSW,208,71.0,-999.0,-999,-99.99,,,-99.99,,2013-01-15 08:53:00,
2013-01-15 02:00:00,-1.0,-99.9,-100.00,SSW,207,71.0,-999.0,-999,-99.99,,,-99.99,,2013-01-15 09:00:00,
2013-01-15 02:53:00,-1.0,-99.9,-100.00,SSW,207,71.0,-999.0,-999,-99.99,,,-99.99,,2013-01-15 09:53:00,
2013-01-15 03:00:00,-1.0,-99.9,-100.00,SSW,205,70.0,-999.0,-999,-99.99,,,0.00,,2013-01-15 10:00:00,
2013-01-15 03:52:00,-1.0,-99.9,-100.00,SSW,205,70.0,-999.0,-999,-99.99,,,0.00,,2013-01-15 10:52:00,
2013-01-15 06:00:00,1.0,-99.9,-100.00,WSW,243,84.0,-999.0,-999,-99.99,,,0.00,,2013-01-15 13:00:00,
2013-01-15 06:53:00,1.0,-99.9,-100.00,WSW,243,84.0,-999.0,-999,-99.99,,,0.00,,2013-01-15 13:53:00,
2013-01-15 07:00:00,2.0,-99.9,-100.00,WSW,257,87.0,-999.0,-999,-99.99,,,0.01,,2013-01-15 14:00:00,
2013-01-15 07:54:00,2.0,-99.9,-100.00,WSW,257,87.0,-999.0,-999,-99.99,,,0.01,,2013-01-15 14:54:00,
2013-01-15 08:00:00,6.0,-99.9,-100.00,WSW,256,87.0,-999.0,-999,-99.99,,,0.01,,2013-01-15 15:00:00,
2013-01-15 08:53:00,6.0,-99.9,-100.00,WSW,256,87.0,-999.0,-999,-99.99,,,0.01,,2013-01-15 15:53:00,
2013-01-15 10:00:00,10.0,-99.9,-100.00,SW,235,81.0,-999.0,-999,-99.99,,,-99.99,,2013-01-15 17:00:00,
2013-01-15 10:53:00,10.0,-99.9,-100.00,SW,235,81.0,-999.0,-999,-99.99,,,-99.99,,2013-01-15 17:53:00,
2013-01-15 11:00:00,14.0,-99.9,-100.00,SW,225,77.0,-999.0,-999,-99.99,,,0.00,,2013-01-15 18:00:00,
2013-01-15 12:00:00,19.0,-99.9,-100.00,SW,216,75.0,-999.0,-999,-99.99,,,0.00,,2013-01-15 19:00:00,
2013-01-15 12:53:00,19.0,-99.9,-100.00,SW,216,75.0,-999.0,-999,-99.99,,,0.00,,2013-01-15 19:53:00,
2013-01-15 13:00:00,22.0,-99.9,-100.00,SSW,210,73.0,-999.0,-999,-99.99,,,0.00,,2013-01-15 20:00:00,
2013-01-15 13:53:00,22.0,-99.9,-100.00,SSW,210,73.0,-999.0,-999,-99.99,,,0.00,,2013-01-15 20:53:00,
2013-01-15 15:00:00,21.0,-99.9,-100.00,WSW,256,90.0,-999.0,-999,-99.99,,,0.01,,2013-01-15 22:00:00,
2013-01-15 15:53:00,21.0,-99.9,-100.00,WSW,256,90.0,-999.0,-999,-99.99,,,0.01,,2013-01-15 22:53:00,
2013-01-15 16:00:00,18.0,-99.9,-100.00,West,262,89.0,-999.0,-999,-99.99,,,0.00,,2013-01-15 23:00:00,
2013-01-15 16:53:00,18.0,-99.9,-100.00,West,262,89.0,-999.0,-999,-99.99,,,0.00,,2013-01-15 23:53:00,
2013-01-15 17:00:00,16.0,-99.9,-100.00,West,265,92.0,-999.0,-999,-99.99,,,0.01,,2013-01-16 00:00:00,
2013-01-15 17:53:00,16.0,-99.9,-100.00,West,265,92.0,-999.0,-999,-99.99,,,0.01,,2013-01-16 00:53:00,
2013-01-15 18:00:00,18.0,-99.9,-100.00,WNW,283,97.0,-999.0,-999,-99.99,,,0.01,,2013-01-16 01:00:00,
2013-01-15 18:53:00,18.0,-99.9,-100.00,WNW,283,97.0,-999.0,-999,-99.99,,,0.01,,2013-01-16 01:53:00,
2013-01-15 19:00:00,15.0,-99.9,-100.00,WNW,285,97.0,-999.0,-999,-99.99,,,0.01,,2013-01-16 02:00:00,
2013-01-15 19:53:00,15.0,-99.9,-100.00,WNW,285,97.0,-999.0,-999,-99.99,,,0.01,,2013-01-16 02:53:00,
2013-01-15 20:00:00,17.0,-99.9,-100.00,West,272,95.0,-999.0,-999,-99.99,,,0.00,,2013-01-16 03:00:00,
2013-01-15 20:53:00,17.0,-99.9,-100.00,West,272,95.0,-999.0,-999,-99.99,,,0.00,,2013-01-16 03:53:00,
2013-01-15 21:00:00,19.0,-99.9,-100.00,West,269,95.0,-999.0,-999,-99.99,,,0.00,,2013-01-16 04:00:00,
2013-01-15 21:53:00,19.0,-99.9,-100.00,West,269,95.0,-999.0,-999,-99.99,,,0.00,,2013-01-16 04:53:00,
2013-01-15 22:00:00,20.0,-99.9,-100.00,North,-999,-999.0,-999.0,-999,-99.99,,,0.01,,2013-01-16 05:00:00,
2013-01-15 22:53:00,20.0,-99.9,-100.00,North,-999,-999.0,-999.0,-999,-99.99,,,0.01,,2013-01-16 05:53:00,
2013-01-15 23:00:00,17.0,-99.9,-100.00,North,-999,-999.0,-999.0,-999,-99.99,,,0.01,,2013-01-16 06:00:00,
2013-01-15 23:53:00,17.0,-99.9,-100.00,North,-999,-999.0,-999.0,-999,-99.99,,,0.01,,2013-01-16 06:53:00,